createdAt,value
2018-09-10T00:00:43.718Z,8.10
2018-09-10T00:03:12.375Z,9.50
2018-09-10T00:05:41.104Z,8.67
2018-09-10T00:08:09.772Z,9.50
2018-09-10T00:10:38.518Z,8.97
2018-09-10T00:13:07.266Z,8.40
2018-09-10T00:15:35.956Z,8.00
2018-09-10T00:18:04.775Z,8.50
2018-09-10T00:20:33.458Z,8.80
2018-09-10T00:23:02.120Z,9.07
2018-09-10T00:25:30.778Z,8.53
2018-09-10T00:27:59.459Z,9.13
2018-09-10T00:30:28.144Z,9.03
2018-09-10T00:32:56.784Z,8.80
2018-09-10T00:35:25.444Z,8.70
2018-09-10T00:37:54.121Z,8.43
2018-09-10T00:40:22.753Z,8.60
2018-09-10T00:42:51.379Z,9.00
2018-09-10T00:45:20.034Z,8.77
2018-09-10T00:47:48.704Z,8.63
2018-09-10T00:50:17.395Z,13.27
2018-09-10T00:52:46.031Z,13.07
2018-09-10T00:55:14.675Z,9.57
2018-09-10T00:57:43.344Z,9.90
2018-09-10T01:00:12.114Z,8.87
2018-09-10T01:02:40.825Z,9.33
2018-09-10T01:05:09.500Z,9.30
2018-09-10T01:07:38.164Z,9.80
2018-09-10T01:10:06.856Z,9.83
2018-09-10T01:12:35.487Z,9.63
2018-09-10T01:15:04.251Z,10.67
2018-09-10T01:17:32.913Z,9.50
2018-09-10T01:20:01.628Z,9.30
2018-09-10T01:22:30.516Z,10.00
2018-09-10T01:24:59.202Z,10.43
2018-09-10T01:27:27.884Z,10.30
2018-09-10T01:29:56.519Z,10.07
2018-09-10T01:32:25.221Z,11.13
2018-09-10T01:34:58.882Z,10.40
2018-09-10T01:37:27.558Z,11.57
2018-09-10T01:39:56.530Z,11.13
2018-09-10T01:42:25.177Z,10.40
2018-09-10T01:44:53.905Z,10.90
2018-09-10T01:47:22.597Z,10.50
2018-09-10T01:49:51.239Z,10.57
2018-09-10T01:52:19.872Z,10.73
2018-09-10T01:54:48.511Z,10.63
2018-09-10T01:57:17.179Z,10.73
2018-09-10T01:59:45.848Z,9.90
2018-09-10T02:02:14.584Z,10.40
2018-09-10T02:04:43.253Z,10.23
2018-09-10T02:07:12.015Z,10.57
2018-09-10T02:09:40.674Z,10.03
2018-09-10T02:12:14.535Z,10.57
2018-09-10T02:14:43.211Z,10.20
2018-09-10T02:17:11.955Z,10.90
2018-09-10T02:19:40.602Z,10.93
2018-09-10T02:22:09.262Z,10.67
2018-09-10T02:24:37.923Z,10.87
2018-09-10T02:27:06.597Z,10.50
2018-09-10T02:29:35.276Z,11.40
2018-09-10T02:32:03.971Z,10.93
2018-09-10T02:34:32.608Z,11.07
2018-09-10T02:37:01.350Z,11.03
2018-09-10T02:39:30.024Z,11.43
2018-09-10T02:41:58.659Z,11.57
2018-09-10T02:44:27.595Z,11.23
2018-09-10T02:46:56.230Z,11.13
2018-09-10T02:49:24.878Z,11.77
2018-09-10T02:51:53.590Z,11.80
2018-09-10T02:54:22.274Z,11.93
2018-09-10T02:56:50.947Z,11.00
2018-09-10T02:59:19.643Z,11.80
2018-09-10T03:01:48.440Z,12.00
2018-09-10T03:04:17.066Z,12.40
2018-09-10T03:06:45.717Z,13.40
2018-09-10T03:09:14.356Z,12.27
2018-09-10T03:11:43.038Z,13.27
2018-09-10T03:14:11.688Z,12.20
2018-09-10T03:16:40.321Z,11.93
2018-09-10T03:19:09.018Z,11.80
2018-09-10T03:21:37.680Z,12.00
2018-09-10T03:24:06.560Z,11.93
2018-09-10T03:26:35.194Z,11.90
2018-09-10T03:29:03.906Z,11.90
2018-09-10T03:31:32.616Z,12.30
2018-09-10T03:34:01.272Z,12.70
2018-09-10T03:36:30.018Z,12.27
2018-09-10T03:38:58.706Z,12.43
2018-09-10T03:41:27.387Z,11.47
2018-09-10T03:43:56.016Z,12.43
2018-09-10T03:46:24.696Z,13.33
2018-09-10T03:48:53.382Z,12.30
2018-09-10T03:51:22.036Z,13.20
2018-09-10T03:53:50.690Z,13.60
2018-09-10T03:56:19.351Z,13.17
2018-09-10T03:58:48.020Z,14.47
2018-09-10T04:01:16.675Z,13.80
2018-09-10T04:03:45.320Z,15.03
2018-09-10T04:06:13.956Z,16.40
2018-09-10T04:08:42.621Z,15.70
2018-09-10T04:11:11.331Z,14.70
2018-09-10T04:13:40.003Z,14.57
2018-09-10T04:16:08.657Z,14.83
2018-09-10T04:18:37.368Z,16.40
2018-09-10T04:21:06.408Z,14.17
2018-09-10T04:23:35.068Z,14.23
2018-09-10T04:26:03.817Z,13.37
2018-09-10T04:28:32.782Z,13.67
2018-09-10T04:31:01.438Z,15.70
2018-09-10T04:33:30.091Z,15.63
2018-09-10T04:35:58.817Z,16.57
2018-09-10T04:38:27.577Z,16.23
2018-09-10T04:40:56.264Z,16.23
2018-09-10T04:43:25.200Z,15.57
2018-09-10T04:45:53.826Z,16.57
2018-09-10T04:48:22.475Z,15.50
2018-09-10T04:50:51.146Z,14.47
2018-09-10T04:53:19.827Z,14.57
2018-09-10T04:55:48.484Z,14.33
2018-09-10T04:58:17.285Z,16.07
2018-09-10T05:00:46.058Z,17.50
2018-09-10T05:03:14.709Z,16.53
2018-09-10T05:05:43.425Z,17.40
2018-09-10T05:08:12.100Z,17.63
2018-09-10T05:10:40.831Z,18.37
2018-09-10T05:13:09.503Z,18.93
2018-09-10T05:15:38.156Z,19.80
2018-09-10T05:18:06.811Z,19.53
2018-09-10T05:20:35.447Z,17.93
2018-09-10T05:23:04.220Z,17.27
2018-09-10T05:25:32.864Z,17.30
2018-09-10T05:28:01.527Z,18.30
2018-09-10T05:30:30.179Z,18.30
2018-09-10T05:32:58.828Z,20.43
2018-09-10T05:35:27.496Z,22.70
2018-09-10T05:37:56.212Z,19.83
2018-09-10T05:40:24.850Z,21.00
2018-09-10T05:42:53.524Z,22.10
2018-09-10T05:45:22.271Z,23.27
2018-09-10T05:47:51.294Z,20.83
2018-09-10T05:50:19.974Z,20.27
2018-09-10T05:52:48.620Z,19.70
2018-09-10T05:55:17.267Z,18.77
2018-09-10T05:57:45.980Z,19.37
2018-09-10T06:00:14.709Z,21.77
2018-09-10T06:02:43.366Z,22.50
2018-09-10T06:05:12.105Z,21.97
2018-09-10T06:07:40.795Z,19.53
2018-09-10T06:10:09.503Z,17.77
2018-09-10T06:12:38.216Z,18.17
2018-09-10T06:15:07.826Z,17.60
2018-09-10T06:17:36.499Z,18.70
2018-09-10T06:20:05.346Z,20.10
2018-09-10T06:22:34.008Z,19.40
2018-09-10T06:25:02.722Z,17.87
2018-09-10T06:27:31.379Z,19.35
2018-09-10T06:30:00.093Z,18.50
2018-09-10T06:32:28.777Z,18.45
2018-09-10T06:34:57.458Z,18.27
2018-09-10T06:37:26.118Z,20.55
2018-09-10T06:39:54.793Z,18.67
2018-09-10T06:42:23.427Z,15.93
2018-09-10T06:44:52.075Z,15.70
2018-09-10T06:47:20.709Z,13.15
2018-09-10T06:49:49.379Z,13.15
2018-09-10T06:52:18.090Z,13.45
2018-09-10T06:54:46.773Z,13.18
2018-09-10T06:57:15.452Z,12.50
2018-09-10T06:59:44.174Z,13.30
2018-09-10T07:02:12.937Z,12.55
2018-09-10T07:04:41.600Z,13.58
2018-09-10T07:07:10.272Z,13.03
2018-09-10T07:09:38.923Z,12.50
2018-09-10T07:12:07.584Z,12.43
2018-09-10T07:14:36.228Z,12.58
2018-09-10T07:17:04.995Z,12.78
2018-09-10T07:19:33.675Z,11.78
2018-09-10T07:22:02.500Z,12.58
2018-09-10T07:24:32.176Z,11.75
2018-09-10T07:27:00.814Z,11.25
2018-09-10T07:29:29.458Z,11.28
2018-09-10T07:31:58.096Z,11.73
2018-09-10T07:34:26.881Z,11.50
2018-09-10T07:36:55.550Z,11.93
2018-09-10T07:39:24.209Z,11.70
2018-09-10T07:41:52.870Z,11.80
2018-09-10T07:44:21.632Z,12.37
2018-09-10T07:46:50.430Z,12.28
2018-09-10T07:49:19.752Z,12.70
2018-09-10T07:51:48.426Z,11.97
2018-09-10T07:54:17.154Z,11.95
2018-09-10T07:56:45.903Z,13.05
2018-09-10T07:59:14.645Z,12.33
2018-09-10T08:01:43.372Z,12.05
2018-09-10T08:04:12.131Z,12.15
2018-09-10T08:06:40.868Z,12.68
2018-09-10T08:09:10.282Z,12.20
2018-09-10T08:11:38.922Z,12.03
2018-09-10T08:14:07.776Z,12.53
2018-09-10T08:16:36.652Z,12.82
2018-09-10T08:19:05.399Z,11.90
2018-09-10T08:21:34.444Z,11.93
2018-09-10T08:24:03.753Z,12.00
2018-09-10T08:26:32.542Z,12.53
2018-09-10T08:29:01.183Z,11.73
2018-09-10T08:31:29.839Z,12.18
2018-09-10T08:34:01.392Z,12.40
2018-09-10T08:36:30.073Z,11.90
2018-09-10T08:38:58.750Z,10.38
2018-09-10T08:41:27.568Z,11.08
2018-09-10T08:43:56.313Z,11.48
2018-09-10T08:46:24.972Z,11.10
2018-09-10T08:48:53.638Z,10.65
2018-09-10T08:51:22.361Z,10.80
2018-09-10T08:53:51.040Z,11.48
2018-09-10T08:56:19.873Z,11.30
2018-09-10T08:58:48.366Z,11.68
2018-09-10T09:01:17.081Z,11.85
2018-09-10T09:03:45.759Z,11.43
2018-09-10T09:06:14.509Z,10.82
2018-09-10T09:08:43.136Z,10.13
2018-09-10T09:11:11.821Z,10.80
2018-09-10T09:13:40.505Z,11.22
2018-09-10T09:16:09.203Z,10.72
2018-09-10T09:18:37.926Z,10.58
2018-09-10T09:21:06.720Z,11.00
2018-09-10T09:23:35.502Z,11.10
2018-09-10T09:26:04.164Z,10.08
2018-09-10T09:28:32.822Z,10.58
2018-09-10T09:31:01.466Z,10.72
2018-09-10T09:33:30.157Z,11.20
2018-09-10T09:36:04.057Z,10.70
2018-09-10T09:38:38.120Z,9.45
2018-09-10T09:41:12.109Z,9.78
2018-09-10T09:43:45.977Z,9.63
2018-09-10T09:46:16.846Z,10.03
2018-09-10T09:48:46.037Z,9.55
2018-09-10T09:51:14.735Z,9.80
2018-09-10T09:53:43.398Z,10.75
2018-09-10T09:56:12.036Z,9.18
2018-09-10T09:58:40.722Z,10.32
2018-09-10T10:01:14.535Z,10.05
2018-09-10T10:03:48.476Z,10.35
2018-09-10T10:06:17.267Z,10.05
2018-09-10T10:08:45.936Z,11.00
2018-09-10T10:11:14.627Z,10.32
2018-09-10T10:13:43.302Z,9.98
2018-09-10T10:16:11.979Z,9.83
2018-09-10T10:18:40.683Z,9.78
2018-09-10T10:21:09.422Z,10.10
2018-09-10T10:23:38.169Z,9.53
2018-09-10T10:26:06.852Z,10.23
2018-09-10T10:28:35.596Z,9.63
2018-09-10T10:31:04.398Z,9.40
2018-09-10T10:33:33.068Z,10.90
2018-09-10T10:36:01.802Z,10.65
2018-09-10T10:38:30.508Z,10.85
2018-09-10T10:40:59.217Z,9.05
2018-09-10T10:43:27.881Z,9.43
2018-09-10T10:45:56.574Z,10.10
2018-09-10T10:48:25.272Z,10.25
2018-09-10T10:50:53.924Z,10.20
2018-09-10T10:53:22.578Z,8.88
2018-09-10T10:55:51.251Z,9.75
2018-09-10T10:58:19.947Z,9.65
2018-09-10T11:00:48.665Z,10.98
2018-09-10T11:03:17.331Z,10.53
2018-09-10T11:05:46.033Z,9.68
2018-09-10T11:08:14.720Z,10.55
2018-09-10T11:10:43.445Z,11.15
2018-09-10T11:13:12.119Z,10.32
2018-09-10T11:15:40.816Z,10.05
2018-09-10T11:18:09.568Z,10.32
2018-09-10T11:20:38.225Z,10.23
2018-09-10T11:23:06.950Z,10.32
2018-09-10T11:25:35.632Z,10.35
2018-09-10T11:28:04.312Z,9.05
2018-09-10T11:30:33.063Z,10.20
2018-09-10T11:33:01.794Z,10.15
2018-09-10T11:35:30.487Z,10.45
2018-09-10T11:37:59.173Z,9.88
2018-09-10T11:40:28.003Z,10.88
2018-09-10T11:42:56.651Z,9.55
2018-09-10T11:45:25.356Z,9.25
2018-09-10T11:47:54.063Z,9.63
2018-09-10T11:50:22.735Z,17.67
2018-09-10T11:52:51.401Z,9.85
2018-09-10T11:55:20.060Z,10.30
2018-09-10T11:57:48.725Z,11.30
2018-09-10T12:00:17.604Z,9.60
2018-09-10T12:02:46.294Z,10.40
2018-09-10T12:05:15.001Z,9.73
2018-09-10T12:07:43.701Z,9.78
2018-09-10T12:10:12.492Z,10.20
2018-09-10T12:12:41.182Z,9.35
2018-09-10T12:15:09.962Z,9.60
2018-09-10T12:17:38.694Z,9.13
2018-09-10T12:20:07.457Z,9.43
2018-09-10T12:22:36.197Z,9.10
2018-09-10T12:25:05.289Z,10.68
2018-09-10T12:27:34.849Z,9.88
2018-09-10T12:30:05.188Z,9.85
2018-09-10T12:32:33.907Z,9.23
2018-09-10T12:35:02.578Z,9.45
2018-09-10T12:37:31.365Z,9.78
2018-09-10T12:40:00.038Z,9.23
2018-09-10T12:42:28.857Z,9.38
2018-09-10T12:44:57.540Z,9.05
2018-09-10T12:47:26.240Z,8.88
2018-09-10T12:49:54.884Z,9.53
2018-09-10T12:52:23.539Z,9.73
2018-09-10T12:54:52.250Z,9.03
2018-09-10T12:57:21.034Z,9.38
2018-09-10T12:59:49.715Z,9.75
2018-09-10T13:02:18.402Z,9.63
2018-09-10T13:04:47.080Z,9.03
2018-09-10T13:07:15.774Z,8.40
2018-09-10T13:09:44.439Z,8.78
2018-09-10T13:12:13.098Z,8.63
2018-09-10T13:14:41.774Z,9.10
2018-09-10T13:17:10.398Z,8.95
2018-09-10T13:19:39.079Z,8.67
2018-09-10T13:22:07.780Z,8.07
2018-09-10T13:24:36.482Z,8.27
2018-09-10T13:27:05.176Z,8.35
2018-09-10T13:29:33.861Z,8.20
2018-09-10T13:32:02.538Z,8.30
2018-09-10T13:34:31.217Z,7.63
2018-09-10T13:36:59.875Z,8.30
2018-09-10T13:39:28.564Z,7.97
2018-09-10T13:41:57.206Z,7.77
2018-09-10T13:44:25.881Z,7.60
2018-09-10T13:46:54.560Z,8.40
2018-09-10T13:49:23.345Z,7.57
2018-09-10T13:51:52.350Z,8.40
2018-09-10T13:54:21.108Z,8.20
2018-09-10T13:56:49.785Z,8.13
2018-09-10T13:59:18.469Z,7.67
2018-09-10T14:01:47.186Z,7.93
2018-09-10T14:04:15.841Z,7.57
2018-09-10T14:06:44.535Z,8.00
2018-09-10T14:09:13.188Z,7.50
2018-09-10T14:11:41.874Z,7.87
2018-09-10T14:14:10.575Z,7.77
2018-09-10T14:16:39.243Z,8.10
2018-09-10T14:19:07.956Z,7.83
2018-09-10T14:21:36.682Z,7.60
2018-09-10T14:24:05.418Z,7.23
2018-09-10T14:26:35.091Z,7.83
2018-09-10T14:29:03.814Z,7.63
2018-09-10T14:31:32.934Z,7.60
2018-09-10T14:34:01.623Z,7.50
2018-09-10T14:36:30.367Z,7.90
2018-09-10T14:38:59.065Z,7.60
2018-09-10T14:41:28.017Z,7.53
2018-09-10T14:43:56.667Z,7.83
2018-09-10T14:46:25.938Z,7.10
2018-09-10T14:48:54.675Z,7.30
2018-09-10T14:51:23.485Z,7.03
2018-09-10T14:53:52.859Z,6.73
2018-09-10T14:56:21.563Z,6.90
2018-09-10T14:58:50.553Z,7.53
2018-09-10T15:01:19.212Z,6.60
2018-09-10T15:03:48.006Z,7.87
2018-09-10T15:06:16.674Z,8.00
2018-09-10T15:08:45.315Z,8.40
2018-09-10T15:11:13.994Z,7.73
2018-09-10T15:13:42.623Z,7.60
2018-09-10T15:16:11.297Z,7.60
2018-09-10T15:18:40.122Z,7.47
2018-09-10T15:21:08.679Z,7.17
2018-09-10T15:23:37.401Z,8.80
2018-09-10T15:26:06.198Z,7.47
2018-09-10T15:28:35.161Z,7.00
2018-09-10T15:31:03.925Z,7.63
2018-09-10T15:33:32.635Z,7.67
2018-09-10T15:36:01.328Z,8.07
2018-09-10T15:38:29.998Z,7.33
2018-09-10T15:40:58.651Z,7.40
2018-09-10T15:43:27.326Z,7.30
2018-09-10T15:45:55.991Z,7.77
2018-09-10T15:48:24.732Z,7.47
2018-09-10T15:50:53.401Z,7.30
2018-09-10T15:53:22.106Z,7.40
2018-09-10T15:55:50.811Z,7.60
2018-09-10T15:58:19.482Z,7.53
2018-09-10T16:00:48.113Z,6.90
2018-09-10T16:03:16.878Z,7.30
2018-09-10T16:05:45.554Z,7.43
2018-09-10T16:08:14.253Z,7.23
2018-09-10T16:10:42.931Z,7.27
2018-09-10T16:13:11.622Z,7.30
2018-09-10T16:15:40.317Z,8.27
2018-09-10T16:18:09.101Z,7.60
2018-09-10T16:20:37.865Z,7.47
2018-09-10T16:23:06.870Z,8.67
2018-09-10T16:25:35.592Z,8.40
2018-09-10T16:28:04.255Z,8.57
2018-09-10T16:30:32.920Z,7.13
2018-09-10T16:33:01.671Z,7.67
2018-09-10T16:35:30.348Z,7.83
2018-09-10T16:37:59.040Z,8.73
2018-09-10T16:40:27.750Z,7.97
2018-09-10T16:42:56.438Z,6.83
2018-09-10T16:45:25.162Z,7.30
2018-09-10T16:47:53.863Z,8.00
2018-09-10T16:50:22.582Z,8.13
2018-09-10T16:52:51.258Z,8.47
2018-09-10T16:55:19.947Z,8.30
2018-09-10T16:57:48.618Z,7.80
2018-09-10T17:00:17.258Z,9.50
2018-09-10T17:02:45.932Z,10.13
2018-09-10T17:05:14.574Z,11.03
2018-09-10T17:07:43.310Z,7.80
2018-09-10T17:10:12.020Z,7.93
2018-09-10T17:12:40.742Z,8.10
2018-09-10T17:15:10.405Z,7.67
2018-09-10T17:17:39.133Z,7.77
2018-09-10T17:20:07.871Z,8.97
2018-09-10T17:22:36.767Z,7.53
2018-09-10T17:25:05.461Z,8.63
2018-09-10T17:27:34.158Z,7.83
2018-09-10T17:30:02.856Z,8.10
2018-09-10T17:32:31.599Z,9.20
2018-09-10T17:35:00.267Z,9.47
2018-09-10T17:37:28.938Z,8.83
2018-09-10T17:39:57.619Z,9.37
2018-09-10T17:42:26.310Z,9.00
2018-09-10T17:44:55.038Z,8.60
2018-09-10T17:47:23.731Z,9.53
2018-09-10T17:49:52.393Z,10.47
2018-09-10T17:52:21.084Z,8.40
2018-09-10T17:54:49.791Z,8.43
2018-09-10T17:57:18.425Z,8.73
2018-09-10T17:59:47.115Z,8.20
2018-09-10T18:02:15.982Z,7.70
2018-09-10T18:04:44.712Z,8.37
2018-09-10T18:07:13.394Z,9.50
2018-09-10T18:09:42.066Z,9.87
2018-09-10T18:12:10.719Z,8.03
2018-09-10T18:14:39.427Z,8.40
2018-09-10T18:17:08.074Z,8.50
2018-09-10T18:19:36.773Z,8.57
2018-09-10T18:22:05.458Z,9.00
2018-09-10T18:24:34.123Z,8.57
2018-09-10T18:27:02.833Z,8.53
2018-09-10T18:29:31.478Z,9.00
2018-09-10T18:32:00.115Z,8.60
2018-09-10T18:34:28.781Z,8.57
2018-09-10T18:36:57.514Z,8.27
2018-09-10T18:39:26.163Z,8.80
2018-09-10T18:41:54.833Z,8.47
2018-09-10T18:44:23.616Z,8.40
2018-09-10T18:46:52.240Z,8.90
2018-09-10T18:49:20.899Z,8.40
2018-09-10T18:51:49.592Z,9.13
2018-09-10T18:54:18.269Z,9.47
2018-09-10T18:56:46.974Z,8.10
2018-09-10T18:59:15.785Z,8.40
2018-09-10T19:01:45.104Z,8.03
2018-09-10T19:04:13.776Z,8.90
2018-09-10T19:06:42.401Z,8.07
2018-09-10T19:09:11.925Z,8.57
2018-09-10T19:11:40.663Z,8.40
2018-09-10T19:14:09.328Z,9.30
2018-09-10T19:16:37.985Z,9.47
2018-09-10T19:19:06.996Z,8.40
2018-09-10T19:21:35.758Z,10.00
2018-09-10T19:24:04.439Z,9.13
2018-09-10T19:26:33.094Z,9.60
2018-09-10T19:29:01.758Z,18.60
2018-09-10T19:31:30.465Z,12.40
2018-09-10T19:33:59.114Z,13.17
2018-09-10T19:36:27.795Z,11.80
2018-09-10T19:38:56.502Z,10.50
2018-09-10T19:41:25.220Z,11.10
2018-09-10T19:43:53.987Z,9.40
2018-09-10T19:46:22.650Z,10.33
2018-09-10T19:48:51.318Z,10.50
2018-09-10T19:51:20.094Z,12.90
2018-09-10T19:53:48.730Z,9.87
2018-09-10T19:56:17.367Z,9.53
2018-09-10T19:58:46.047Z,10.80
2018-09-10T20:01:14.737Z,10.10
2018-09-10T20:03:43.442Z,9.57
2018-09-10T20:06:12.133Z,9.33
2018-09-10T20:08:41.151Z,10.07
2018-09-10T20:11:09.827Z,10.17
2018-09-10T20:13:38.519Z,12.10
2018-09-10T20:16:07.286Z,10.60
2018-09-10T20:18:36.015Z,10.57
2018-09-10T20:21:05.002Z,9.80
2018-09-10T20:23:33.684Z,9.50
2018-09-10T20:26:02.387Z,10.10
2018-09-10T20:28:31.019Z,9.83
2018-09-10T20:31:00.095Z,9.27
2018-09-10T20:33:28.860Z,9.03
2018-09-10T20:35:58.238Z,9.43
2018-09-10T20:38:26.895Z,9.20
2018-09-10T20:40:55.527Z,9.07
2018-09-10T20:43:24.170Z,8.50
2018-09-10T20:45:52.825Z,8.90
2018-09-10T20:48:21.472Z,9.53
2018-09-10T20:50:50.129Z,9.37
2018-09-10T20:53:18.862Z,9.10
2018-09-10T20:55:47.470Z,8.77
2018-09-10T20:58:16.105Z,9.90
2018-09-10T21:00:44.784Z,9.57
2018-09-10T21:03:13.433Z,9.43
2018-09-10T21:05:42.071Z,9.27
2018-09-10T21:08:10.754Z,9.70
2018-09-10T21:10:39.398Z,9.57
2018-09-10T21:13:08.159Z,9.50
2018-09-10T21:15:36.815Z,10.10
2018-09-10T21:18:05.535Z,9.47
2018-09-10T21:20:34.231Z,9.30
2018-09-10T21:23:03.437Z,9.43
2018-09-10T21:25:32.217Z,9.30
2018-09-10T21:28:00.921Z,9.57
2018-09-10T21:30:29.538Z,9.27
2018-09-10T21:32:58.240Z,9.33
2018-09-10T21:35:26.890Z,9.60
2018-09-10T21:37:55.507Z,9.10
2018-09-10T21:40:24.136Z,9.67
2018-09-10T21:42:52.814Z,9.20
2018-09-10T21:45:21.437Z,9.37
2018-09-10T21:47:50.081Z,8.97
2018-09-10T21:50:18.747Z,8.53
2018-09-10T21:52:47.387Z,8.53
2018-09-10T21:55:17.042Z,8.70
2018-09-10T21:57:45.692Z,8.83
2018-09-10T22:00:14.455Z,8.33
2018-09-10T22:02:43.170Z,8.43
2018-09-10T22:05:11.885Z,8.53
2018-09-10T22:07:40.591Z,8.27
2018-09-10T22:10:09.281Z,8.50
2018-09-10T22:12:37.971Z,8.33
2018-09-10T22:15:06.658Z,8.30
2018-09-10T22:17:35.359Z,8.20
2018-09-10T22:20:04.197Z,7.80
2018-09-10T22:22:32.925Z,8.40
2018-09-10T22:25:01.661Z,8.27
2018-09-10T22:27:30.362Z,8.40
2018-09-10T22:29:58.989Z,8.97
2018-09-10T22:32:27.720Z,9.30
2018-09-10T22:34:56.463Z,9.37
2018-09-10T22:37:25.138Z,9.17
2018-09-10T22:39:53.942Z,9.30
2018-09-10T22:42:23.013Z,10.13
2018-09-10T22:44:51.800Z,10.07
2018-09-10T22:47:20.515Z,9.63
2018-09-10T22:49:49.279Z,9.53
2018-09-10T22:52:18.000Z,9.53
2018-09-10T22:54:46.702Z,9.83
2018-09-10T22:57:15.398Z,10.43
2018-09-10T22:59:44.060Z,10.10
2018-09-10T23:02:12.782Z,10.80
2018-09-10T23:04:41.519Z,11.13
2018-09-10T23:07:10.165Z,11.10
2018-09-10T23:09:38.876Z,10.63
2018-09-10T23:12:07.606Z,11.60
2018-09-10T23:14:36.289Z,10.90
2018-09-10T23:17:05.091Z,10.87
2018-09-10T23:19:33.889Z,11.23
2018-09-10T23:22:02.591Z,12.47
2018-09-10T23:24:31.241Z,12.67
2018-09-10T23:26:59.891Z,13.03
2018-09-10T23:29:28.611Z,12.60
2018-09-10T23:31:57.307Z,12.03
2018-09-10T23:34:25.951Z,11.67
2018-09-10T23:36:54.631Z,11.37
2018-09-10T23:39:23.295Z,10.70
2018-09-10T23:41:51.980Z,11.60
2018-09-10T23:44:20.721Z,12.17
2018-09-10T23:46:49.372Z,11.90
2018-09-10T23:49:18.040Z,11.40
2018-09-10T23:51:46.786Z,11.53
2018-09-10T23:54:15.492Z,11.70
2018-09-10T23:56:44.162Z,11.63
2018-09-10T23:59:12.812Z,11.70
